sensor_id;sensor_type;location;lat;lon;timestamp;P1;durP1;ratioP1;P2;durP2;ratioP2
49123;SDS011;48506;48.202;16.274;2023-11-21T00:01:24;4.43;;;1.50;;
49123;SDS011;48506;48.202;16.274;2023-11-21T00:03:50;5.93;;;2.20;;
49123;SDS011;48506;48.202;16.274;2023-11-21T00:06:20;5.18;;;1.88;;
49123;SDS011;48506;48.202;16.274;2023-11-21T00:08:46;6.95;;;1.90;;
49123;SDS011;48506;48.202;16.274;2023-11-21T00:11:12;4.50;;;2.22;;
49123;SDS011;48506;48.202;16.274;2023-11-21T00:13:38;6.20;;;1.80;;
49123;SDS011;48506;48.202;16.274;2023-11-21T00:16:04;10.48;;;2.08;;
49123;SDS011;48506;48.202;16.274;2023-11-21T00:18:31;4.05;;;1.77;;
49123;SDS011;48506;48.202;16.274;2023-11-21T00:20:57;5.75;;;1.80;;
49123;SDS011;48506;48.202;16.274;2023-11-21T00:23:24;7.13;;;1.77;;
49123;SDS011;48506;48.202;16.274;2023-11-21T00:25:50;8.05;;;2.03;;
49123;SDS011;48506;48.202;16.274;2023-11-21T00:28:16;7.15;;;2.78;;
49123;SDS011;48506;48.202;16.274;2023-11-21T00:30:42;13.32;;;3.20;;
49123;SDS011;48506;48.202;16.274;2023-11-21T00:33:08;6.70;;;1.75;;
49123;SDS011;48506;48.202;16.274;2023-11-21T00:35:34;3.72;;;1.58;;
49123;SDS011;48506;48.202;16.274;2023-11-21T00:38:01;14.25;;;2.15;;
49123;SDS011;48506;48.202;16.274;2023-11-21T00:40:29;6.85;;;1.85;;
49123;SDS011;48506;48.202;16.274;2023-11-21T00:42:56;7.50;;;2.65;;
49123;SDS011;48506;48.202;16.274;2023-11-21T00:45:22;7.50;;;1.83;;
49123;SDS011;48506;48.202;16.274;2023-11-21T00:47:48;9.82;;;2.03;;
49123;SDS011;48506;48.202;16.274;2023-11-21T00:50:14;6.72;;;2.33;;
49123;SDS011;48506;48.202;16.274;2023-11-21T00:52:41;3.97;;;2.03;;
49123;SDS011;48506;48.202;16.274;2023-11-21T00:55:07;6.63;;;1.80;;
49123;SDS011;48506;48.202;16.274;2023-11-21T00:57:34;5.55;;;1.48;;
49123;SDS011;48506;48.202;16.274;2023-11-21T01:00:01;9.85;;;2.20;;
49123;SDS011;48506;48.202;16.274;2023-11-21T01:02:32;6.45;;;1.70;;
49123;SDS011;48506;48.202;16.274;2023-11-21T01:04:58;5.13;;;1.80;;
49123;SDS011;48506;48.202;16.274;2023-11-21T01:07:24;5.53;;;1.67;;
49123;SDS011;48506;48.202;16.274;2023-11-21T01:09:50;4.15;;;1.55;;
49123;SDS011;48506;48.202;16.274;2023-11-21T01:12:16;8.43;;;1.40;;
49123;SDS011;48506;48.202;16.274;2023-11-21T01:14:43;4.95;;;2.35;;
49123;SDS011;48506;48.202;16.274;2023-11-21T01:17:10;6.20;;;1.80;;
49123;SDS011;48506;48.202;16.274;2023-11-21T01:19:36;3.95;;;1.85;;
49123;SDS011;48506;48.202;16.274;2023-11-21T01:22:02;3.58;;;2.17;;
49123;SDS011;48506;48.202;16.274;2023-11-21T01:24:29;5.47;;;2.17;;
49123;SDS011;48506;48.202;16.274;2023-11-21T01:26:55;4.43;;;1.30;;
49123;SDS011;48506;48.202;16.274;2023-11-21T01:29:21;7.15;;;1.75;;
49123;SDS011;48506;48.202;16.274;2023-11-21T01:31:47;7.47;;;1.98;;
49123;SDS011;48506;48.202;16.274;2023-11-21T01:34:13;7.85;;;1.88;;
49123;SDS011;48506;48.202;16.274;2023-11-21T01:36:39;5.93;;;2.15;;
49123;SDS011;48506;48.202;16.274;2023-11-21T01:39:05;6.15;;;2.00;;
49123;SDS011;48506;48.202;16.274;2023-11-21T01:41:34;6.40;;;2.53;;
49123;SDS011;48506;48.202;16.274;2023-11-21T01:44:00;7.72;;;1.95;;
49123;SDS011;48506;48.202;16.274;2023-11-21T01:46:26;8.20;;;2.58;;
49123;SDS011;48506;48.202;16.274;2023-11-21T01:48:55;5.35;;;2.78;;
49123;SDS011;48506;48.202;16.274;2023-11-21T01:51:21;10.18;;;2.08;;
49123;SDS011;48506;48.202;16.274;2023-11-21T01:53:47;7.82;;;1.70;;
49123;SDS011;48506;48.202;16.274;2023-11-21T01:56:13;7.43;;;2.17;;
49123;SDS011;48506;48.202;16.274;2023-11-21T01:58:40;7.43;;;2.00;;
49123;SDS011;48506;48.202;16.274;2023-11-21T02:01:08;6.07;;;2.50;;
49123;SDS011;48506;48.202;16.274;2023-11-21T02:03:35;5.60;;;1.70;;
49123;SDS011;48506;48.202;16.274;2023-11-21T02:06:01;7.15;;;1.52;;
49123;SDS011;48506;48.202;16.274;2023-11-21T02:08:28;8.15;;;1.95;;
49123;SDS011;48506;48.202;16.274;2023-11-21T02:10:54;9.10;;;1.65;;
49123;SDS011;48506;48.202;16.274;2023-11-21T02:13:20;11.60;;;2.08;;
49123;SDS011;48506;48.202;16.274;2023-11-21T02:15:46;7.40;;;2.88;;
49123;SDS011;48506;48.202;16.274;2023-11-21T02:18:15;9.38;;;1.85;;
49123;SDS011;48506;48.202;16.274;2023-11-21T02:20:41;5.85;;;1.83;;
49123;SDS011;48506;48.202;16.274;2023-11-21T02:23:08;10.68;;;2.38;;
49123;SDS011;48506;48.202;16.274;2023-11-21T02:25:34;6.18;;;1.63;;
49123;SDS011;48506;48.202;16.274;2023-11-21T02:28:02;7.25;;;2.05;;
49123;SDS011;48506;48.202;16.274;2023-11-21T02:30:29;6.65;;;2.13;;
49123;SDS011;48506;48.202;16.274;2023-11-21T02:32:58;4.70;;;1.80;;
49123;SDS011;48506;48.202;16.274;2023-11-21T02:35:25;7.82;;;1.80;;
49123;SDS011;48506;48.202;16.274;2023-11-21T02:37:52;6.65;;;2.15;;
49123;SDS011;48506;48.202;16.274;2023-11-21T02:40:19;9.13;;;1.58;;
49123;SDS011;48506;48.202;16.274;2023-11-21T02:42:50;9.00;;;2.50;;
49123;SDS011;48506;48.202;16.274;2023-11-21T02:45:17;7.78;;;2.35;;
49123;SDS011;48506;48.202;16.274;2023-11-21T02:47:45;5.05;;;1.58;;
49123;SDS011;48506;48.202;16.274;2023-11-21T02:50:12;14.27;;;2.60;;
49123;SDS011;48506;48.202;16.274;2023-11-21T02:52:39;5.82;;;1.67;;
49123;SDS011;48506;48.202;16.274;2023-11-21T02:55:05;5.75;;;1.88;;
49123;SDS011;48506;48.202;16.274;2023-11-21T02:57:35;10.87;;;1.80;;
49123;SDS011;48506;48.202;16.274;2023-11-21T03:00:01;12.68;;;2.03;;
49123;SDS011;48506;48.202;16.274;2023-11-21T03:02:28;11.98;;;2.03;;
49123;SDS011;48506;48.202;16.274;2023-11-21T03:04:53;7.35;;;2.58;;
49123;SDS011;48506;48.202;16.274;2023-11-21T03:07:19;8.68;;;1.80;;
49123;SDS011;48506;48.202;16.274;2023-11-21T03:09:47;7.82;;;2.05;;
49123;SDS011;48506;48.202;16.274;2023-11-21T03:12:13;7.22;;;1.80;;
49123;SDS011;48506;48.202;16.274;2023-11-21T03:14:39;5.32;;;1.77;;
49123;SDS011;48506;48.202;16.274;2023-11-21T03:17:05;6.85;;;2.25;;
49123;SDS011;48506;48.202;16.274;2023-11-21T03:19:31;5.57;;;1.80;;
49123;SDS011;48506;48.202;16.274;2023-11-21T03:21:58;5.75;;;1.90;;
49123;SDS011;48506;48.202;16.274;2023-11-21T03:24:24;7.80;;;1.63;;
49123;SDS011;48506;48.202;16.274;2023-11-21T03:26:52;6.95;;;2.13;;
49123;SDS011;48506;48.202;16.274;2023-11-21T03:29:18;7.95;;;1.83;;
49123;SDS011;48506;48.202;16.274;2023-11-21T03:31:44;6.35;;;2.05;;
49123;SDS011;48506;48.202;16.274;2023-11-21T03:34:14;9.90;;;2.63;;
49123;SDS011;48506;48.202;16.274;2023-11-21T03:36:45;5.72;;;1.77;;
49123;SDS011;48506;48.202;16.274;2023-11-21T03:39:12;5.63;;;1.50;;
49123;SDS011;48506;48.202;16.274;2023-11-21T03:41:38;6.53;;;2.10;;
49123;SDS011;48506;48.202;16.274;2023-11-21T03:44:05;5.90;;;1.55;;
49123;SDS011;48506;48.202;16.274;2023-11-21T03:46:31;5.88;;;1.60;;
49123;SDS011;48506;48.202;16.274;2023-11-21T03:48:57;7.75;;;2.08;;
49123;SDS011;48506;48.202;16.274;2023-11-21T03:51:23;8.55;;;2.58;;
49123;SDS011;48506;48.202;16.274;2023-11-21T03:53:49;8.20;;;2.25;;
49123;SDS011;48506;48.202;16.274;2023-11-21T03:56:15;10.20;;;2.05;;
49123;SDS011;48506;48.202;16.274;2023-11-21T03:58:41;5.22;;;2.00;;
49123;SDS011;48506;48.202;16.274;2023-11-21T04:01:07;7.72;;;2.53;;
49123;SDS011;48506;48.202;16.274;2023-11-21T04:03:36;12.57;;;2.70;;
49123;SDS011;48506;48.202;16.274;2023-11-21T04:06:02;10.23;;;2.10;;
49123;SDS011;48506;48.202;16.274;2023-11-21T04:08:28;7.50;;;1.98;;
49123;SDS011;48506;48.202;16.274;2023-11-21T04:10:54;9.75;;;2.53;;
49123;SDS011;48506;48.202;16.274;2023-11-21T04:13:20;6.20;;;2.13;;
49123;SDS011;48506;48.202;16.274;2023-11-21T04:15:47;6.35;;;2.38;;
49123;SDS011;48506;48.202;16.274;2023-11-21T04:18:13;7.10;;;2.47;;
49123;SDS011;48506;48.202;16.274;2023-11-21T04:20:38;6.15;;;2.58;;
49123;SDS011;48506;48.202;16.274;2023-11-21T04:23:05;9.45;;;3.75;;
49123;SDS011;48506;48.202;16.274;2023-11-21T04:25:31;10.25;;;4.82;;
49123;SDS011;48506;48.202;16.274;2023-11-21T04:27:56;10.05;;;4.22;;
49123;SDS011;48506;48.202;16.274;2023-11-21T04:30:23;8.27;;;3.20;;
49123;SDS011;48506;48.202;16.274;2023-11-21T04:32:49;10.95;;;3.85;;
49123;SDS011;48506;48.202;16.274;2023-11-21T04:35:16;5.65;;;2.70;;
49123;SDS011;48506;48.202;16.274;2023-11-21T04:37:42;7.50;;;2.28;;
49123;SDS011;48506;48.202;16.274;2023-11-21T04:40:08;7.80;;;2.13;;
49123;SDS011;48506;48.202;16.274;2023-11-21T04:42:35;10.05;;;2.65;;
49123;SDS011;48506;48.202;16.274;2023-11-21T04:45:03;7.82;;;2.20;;
49123;SDS011;48506;48.202;16.274;2023-11-21T04:47:34;7.97;;;2.22;;
49123;SDS011;48506;48.202;16.274;2023-11-21T04:50:00;4.25;;;2.13;;
49123;SDS011;48506;48.202;16.274;2023-11-21T04:52:28;5.35;;;2.00;;
49123;SDS011;48506;48.202;16.274;2023-11-21T04:54:54;8.30;;;2.42;;
49123;SDS011;48506;48.202;16.274;2023-11-21T04:57:20;6.20;;;2.53;;
49123;SDS011;48506;48.202;16.274;2023-11-21T04:59:48;6.15;;;2.20;;
49123;SDS011;48506;48.202;16.274;2023-11-21T05:02:16;8.38;;;2.53;;
49123;SDS011;48506;48.202;16.274;2023-11-21T05:04:43;7.35;;;3.08;;
49123;SDS011;48506;48.202;16.274;2023-11-21T05:07:09;11.68;;;3.30;;
49123;SDS011;48506;48.202;16.274;2023-11-21T05:09:35;12.70;;;3.22;;
49123;SDS011;48506;48.202;16.274;2023-11-21T05:12:03;9.38;;;2.67;;
49123;SDS011;48506;48.202;16.274;2023-11-21T05:14:29;7.60;;;2.30;;
49123;SDS011;48506;48.202;16.274;2023-11-21T05:16:55;8.82;;;2.33;;
49123;SDS011;48506;48.202;16.274;2023-11-21T05:19:21;12.98;;;2.75;;
49123;SDS011;48506;48.202;16.274;2023-11-21T05:21:48;6.50;;;2.35;;
49123;SDS011;48506;48.202;16.274;2023-11-21T05:24:14;6.57;;;2.80;;
49123;SDS011;48506;48.202;16.274;2023-11-21T05:26:41;10.95;;;2.65;;
49123;SDS011;48506;48.202;16.274;2023-11-21T05:29:07;10.02;;;2.20;;
49123;SDS011;48506;48.202;16.274;2023-11-21T05:31:35;10.88;;;3.53;;
49123;SDS011;48506;48.202;16.274;2023-11-21T05:34:01;9.85;;;2.30;;
49123;SDS011;48506;48.202;16.274;2023-11-21T05:36:29;17.35;;;2.95;;
49123;SDS011;48506;48.202;16.274;2023-11-21T05:38:55;13.07;;;3.05;;
49123;SDS011;48506;48.202;16.274;2023-11-21T05:41:22;7.65;;;2.58;;
49123;SDS011;48506;48.202;16.274;2023-11-21T05:43:49;12.05;;;3.40;;
49123;SDS011;48506;48.202;16.274;2023-11-21T05:46:14;11.32;;;3.60;;
49123;SDS011;48506;48.202;16.274;2023-11-21T05:48:40;9.75;;;3.90;;
49123;SDS011;48506;48.202;16.274;2023-11-21T05:51:07;10.43;;;4.32;;
49123;SDS011;48506;48.202;16.274;2023-11-21T05:53:33;9.32;;;4.25;;
49123;SDS011;48506;48.202;16.274;2023-11-21T05:56:00;12.80;;;4.10;;
49123;SDS011;48506;48.202;16.274;2023-11-21T05:58:26;14.85;;;4.53;;
49123;SDS011;48506;48.202;16.274;2023-11-21T06:00:52;9.73;;;4.18;;
49123;SDS011;48506;48.202;16.274;2023-11-21T06:03:18;14.70;;;3.60;;
49123;SDS011;48506;48.202;16.274;2023-11-21T06:05:44;9.98;;;3.63;;
49123;SDS011;48506;48.202;16.274;2023-11-21T06:08:10;12.98;;;4.22;;
49123;SDS011;48506;48.202;16.274;2023-11-21T06:10:36;12.50;;;4.15;;
49123;SDS011;48506;48.202;16.274;2023-11-21T06:13:02;10.05;;;3.20;;
49123;SDS011;48506;48.202;16.274;2023-11-21T06:15:29;10.15;;;2.95;;
49123;SDS011;48506;48.202;16.274;2023-11-21T06:17:55;8.90;;;2.95;;
49123;SDS011;48506;48.202;16.274;2023-11-21T06:20:21;10.18;;;3.15;;
49123;SDS011;48506;48.202;16.274;2023-11-21T06:22:48;9.18;;;2.72;;
49123;SDS011;48506;48.202;16.274;2023-11-21T06:25:16;7.78;;;3.38;;
49123;SDS011;48506;48.202;16.274;2023-11-21T06:27:43;12.32;;;3.95;;
49123;SDS011;48506;48.202;16.274;2023-11-21T06:30:12;8.15;;;2.53;;
49123;SDS011;48506;48.202;16.274;2023-11-21T06:32:40;7.68;;;2.95;;
49123;SDS011;48506;48.202;16.274;2023-11-21T06:35:07;9.02;;;4.07;;
49123;SDS011;48506;48.202;16.274;2023-11-21T06:37:35;9.20;;;2.67;;
49123;SDS011;48506;48.202;16.274;2023-11-21T06:40:01;8.80;;;3.50;;
49123;SDS011;48506;48.202;16.274;2023-11-21T06:42:29;14.90;;;4.20;;
49123;SDS011;48506;48.202;16.274;2023-11-21T06:44:55;10.52;;;2.75;;
49123;SDS011;48506;48.202;16.274;2023-11-21T06:47:23;10.88;;;3.20;;
49123;SDS011;48506;48.202;16.274;2023-11-21T06:49:56;16.05;;;3.08;;
49123;SDS011;48506;48.202;16.274;2023-11-21T06:52:22;10.00;;;2.78;;
49123;SDS011;48506;48.202;16.274;2023-11-21T06:54:48;9.48;;;3.30;;
49123;SDS011;48506;48.202;16.274;2023-11-21T06:57:17;10.38;;;3.08;;
49123;SDS011;48506;48.202;16.274;2023-11-21T06:59:44;13.40;;;2.70;;
49123;SDS011;48506;48.202;16.274;2023-11-21T07:02:10;12.10;;;4.30;;
49123;SDS011;48506;48.202;16.274;2023-11-21T07:04:36;12.18;;;3.17;;
49123;SDS011;48506;48.202;16.274;2023-11-21T07:07:02;7.28;;;3.33;;
49123;SDS011;48506;48.202;16.274;2023-11-21T07:09:29;8.70;;;3.38;;
49123;SDS011;48506;48.202;16.274;2023-11-21T07:11:56;11.75;;;3.25;;
49123;SDS011;48506;48.202;16.274;2023-11-21T07:14:22;9.23;;;3.75;;
49123;SDS011;48506;48.202;16.274;2023-11-21T07:16:48;9.48;;;3.08;;
49123;SDS011;48506;48.202;16.274;2023-11-21T07:19:15;13.07;;;3.90;;
49123;SDS011;48506;48.202;16.274;2023-11-21T07:21:41;10.45;;;4.15;;
49123;SDS011;48506;48.202;16.274;2023-11-21T07:24:08;11.45;;;4.25;;
49123;SDS011;48506;48.202;16.274;2023-11-21T07:26:34;12.25;;;4.25;;
49123;SDS011;48506;48.202;16.274;2023-11-21T07:29:00;10.57;;;3.83;;
49123;SDS011;48506;48.202;16.274;2023-11-21T07:31:28;12.15;;;4.97;;
49123;SDS011;48506;48.202;16.274;2023-11-21T07:33:55;12.13;;;5.82;;
49123;SDS011;48506;48.202;16.274;2023-11-21T07:36:24;15.57;;;5.47;;
49123;SDS011;48506;48.202;16.274;2023-11-21T07:38:51;14.68;;;5.47;;
49123;SDS011;48506;48.202;16.274;2023-11-21T07:41:18;11.57;;;4.85;;
49123;SDS011;48506;48.202;16.274;2023-11-21T07:43:44;15.95;;;5.03;;
49123;SDS011;48506;48.202;16.274;2023-11-21T07:46:11;14.88;;;5.25;;
49123;SDS011;48506;48.202;16.274;2023-11-21T07:48:38;14.52;;;5.05;;
49123;SDS011;48506;48.202;16.274;2023-11-21T07:51:06;13.48;;;3.45;;
49123;SDS011;48506;48.202;16.274;2023-11-21T07:53:32;8.30;;;3.00;;
49123;SDS011;48506;48.202;16.274;2023-11-21T07:55:58;9.70;;;3.97;;
49123;SDS011;48506;48.202;16.274;2023-11-21T07:58:28;9.57;;;4.30;;
49123;SDS011;48506;48.202;16.274;2023-11-21T08:00:54;10.02;;;5.38;;
49123;SDS011;48506;48.202;16.274;2023-11-21T08:03:20;14.57;;;5.00;;
49123;SDS011;48506;48.202;16.274;2023-11-21T08:05:47;12.45;;;6.07;;
49123;SDS011;48506;48.202;16.274;2023-11-21T08:08:13;12.73;;;4.45;;
49123;SDS011;48506;48.202;16.274;2023-11-21T08:10:39;11.80;;;2.78;;
49123;SDS011;48506;48.202;16.274;2023-11-21T08:13:05;9.45;;;2.58;;
49123;SDS011;48506;48.202;16.274;2023-11-21T08:15:34;14.48;;;3.80;;
49123;SDS011;48506;48.202;16.274;2023-11-21T08:18:02;13.13;;;3.55;;
49123;SDS011;48506;48.202;16.274;2023-11-21T08:20:28;10.80;;;3.33;;
49123;SDS011;48506;48.202;16.274;2023-11-21T08:22:57;9.85;;;2.60;;
49123;SDS011;48506;48.202;16.274;2023-11-21T08:25:23;8.40;;;2.90;;
49123;SDS011;48506;48.202;16.274;2023-11-21T08:27:50;7.43;;;2.47;;
49123;SDS011;48506;48.202;16.274;2023-11-21T08:30:16;6.68;;;2.72;;
49123;SDS011;48506;48.202;16.274;2023-11-21T08:32:44;9.40;;;2.92;;
49123;SDS011;48506;48.202;16.274;2023-11-21T08:35:10;17.08;;;2.90;;
49123;SDS011;48506;48.202;16.274;2023-11-21T08:37:37;9.57;;;3.47;;
49123;SDS011;48506;48.202;16.274;2023-11-21T08:40:05;15.50;;;3.88;;
49123;SDS011;48506;48.202;16.274;2023-11-21T08:42:35;9.65;;;2.85;;
49123;SDS011;48506;48.202;16.274;2023-11-21T08:45:01;18.25;;;3.58;;
49123;SDS011;48506;48.202;16.274;2023-11-21T08:47:27;19.40;;;3.97;;
49123;SDS011;48506;48.202;16.274;2023-11-21T08:49:53;11.48;;;3.30;;
49123;SDS011;48506;48.202;16.274;2023-11-21T08:52:19;8.13;;;3.10;;
49123;SDS011;48506;48.202;16.274;2023-11-21T08:54:49;12.85;;;3.03;;
49123;SDS011;48506;48.202;16.274;2023-11-21T08:57:21;8.65;;;3.03;;
49123;SDS011;48506;48.202;16.274;2023-11-21T08:59:48;9.60;;;3.85;;
49123;SDS011;48506;48.202;16.274;2023-11-21T09:02:22;10.05;;;3.10;;
49123;SDS011;48506;48.202;16.274;2023-11-21T09:04:51;9.60;;;2.67;;
49123;SDS011;48506;48.202;16.274;2023-11-21T09:07:18;6.22;;;1.90;;
49123;SDS011;48506;48.202;16.274;2023-11-21T09:09:48;5.55;;;1.73;;
49123;SDS011;48506;48.202;16.274;2023-11-21T09:12:15;9.45;;;2.33;;
49123;SDS011;48506;48.202;16.274;2023-11-21T09:14:42;4.82;;;1.83;;
49123;SDS011;48506;48.202;16.274;2023-11-21T09:17:09;6.53;;;1.73;;
49123;SDS011;48506;48.202;16.274;2023-11-21T09:19:38;5.32;;;1.67;;
49123;SDS011;48506;48.202;16.274;2023-11-21T09:22:05;5.82;;;1.98;;
49123;SDS011;48506;48.202;16.274;2023-11-21T09:24:32;7.60;;;2.75;;
49123;SDS011;48506;48.202;16.274;2023-11-21T09:26:59;5.57;;;1.77;;
49123;SDS011;48506;48.202;16.274;2023-11-21T09:29:26;8.75;;;2.05;;
49123;SDS011;48506;48.202;16.274;2023-11-21T09:31:54;6.00;;;2.75;;
49123;SDS011;48506;48.202;16.274;2023-11-21T09:34:21;8.02;;;1.70;;
49123;SDS011;48506;48.202;16.274;2023-11-21T09:36:47;3.65;;;1.23;;
49123;SDS011;48506;48.202;16.274;2023-11-21T09:39:14;7.55;;;2.03;;
49123;SDS011;48506;48.202;16.274;2023-11-21T09:41:43;5.35;;;1.30;;
49123;SDS011;48506;48.202;16.274;2023-11-21T09:44:29;3.25;;;1.30;;
49123;SDS011;48506;48.202;16.274;2023-11-21T09:47:37;4.93;;;1.77;;
49123;SDS011;48506;48.202;16.274;2023-11-21T09:50:04;2.55;;;1.30;;
49123;SDS011;48506;48.202;16.274;2023-11-21T09:52:38;7.45;;;1.50;;
49123;SDS011;48506;48.202;16.274;2023-11-21T09:55:13;4.20;;;1.40;;
49123;SDS011;48506;48.202;16.274;2023-11-21T09:57:44;4.88;;;1.90;;
49123;SDS011;48506;48.202;16.274;2023-11-21T10:00:11;5.57;;;1.42;;
49123;SDS011;48506;48.202;16.274;2023-11-21T10:02:40;3.47;;;0.88;;
49123;SDS011;48506;48.202;16.274;2023-11-21T10:05:07;4.40;;;1.20;;
49123;SDS011;48506;48.202;16.274;2023-11-21T10:07:36;7.20;;;1.63;;
49123;SDS011;48506;48.202;16.274;2023-11-21T10:10:05;4.93;;;1.35;;
49123;SDS011;48506;48.202;16.274;2023-11-21T10:12:35;6.70;;;2.50;;
49123;SDS011;48506;48.202;16.274;2023-11-21T10:15:01;6.93;;;2.97;;
49123;SDS011;48506;48.202;16.274;2023-11-21T10:17:31;5.55;;;1.40;;
49123;SDS011;48506;48.202;16.274;2023-11-21T10:20:09;4.68;;;1.83;;
49123;SDS011;48506;48.202;16.274;2023-11-21T10:25:09;6.20;;;2.13;;
49123;SDS011;48506;48.202;16.274;2023-11-21T10:27:38;8.93;;;2.80;;
49123;SDS011;48506;48.202;16.274;2023-11-21T10:30:05;3.45;;;1.20;;
49123;SDS011;48506;48.202;16.274;2023-11-21T10:32:33;4.30;;;1.27;;
49123;SDS011;48506;48.202;16.274;2023-11-21T10:35:00;4.95;;;1.40;;
49123;SDS011;48506;48.202;16.274;2023-11-21T10:37:32;6.45;;;1.55;;
49123;SDS011;48506;48.202;16.274;2023-11-21T10:39:58;4.35;;;1.60;;
49123;SDS011;48506;48.202;16.274;2023-11-21T10:42:24;3.50;;;1.42;;
49123;SDS011;48506;48.202;16.274;2023-11-21T10:44:53;6.43;;;1.10;;
49123;SDS011;48506;48.202;16.274;2023-11-21T10:47:20;7.38;;;2.05;;
49123;SDS011;48506;48.202;16.274;2023-11-21T10:49:51;6.65;;;1.58;;
49123;SDS011;48506;48.202;16.274;2023-11-21T10:52:19;7.30;;;2.85;;
49123;SDS011;48506;48.202;16.274;2023-11-21T10:54:45;1.73;;;0.90;;
49123;SDS011;48506;48.202;16.274;2023-11-21T10:57:13;3.72;;;1.20;;
49123;SDS011;48506;48.202;16.274;2023-11-21T10:59:46;6.25;;;1.50;;
49123;SDS011;48506;48.202;16.274;2023-11-21T11:02:19;4.20;;;1.30;;
49123;SDS011;48506;48.202;16.274;2023-11-21T11:04:50;2.55;;;1.10;;
49123;SDS011;48506;48.202;16.274;2023-11-21T11:07:18;5.65;;;1.38;;
49123;SDS011;48506;48.202;16.274;2023-11-21T11:09:49;5.88;;;1.50;;
49123;SDS011;48506;48.202;16.274;2023-11-21T11:12:16;6.25;;;1.50;;
49123;SDS011;48506;48.202;16.274;2023-11-21T11:14:42;9.00;;;1.42;;
49123;SDS011;48506;48.202;16.274;2023-11-21T11:17:10;2.08;;;0.85;;
49123;SDS011;48506;48.202;16.274;2023-11-21T11:19:37;1.98;;;1.10;;
49123;SDS011;48506;48.202;16.274;2023-11-21T11:22:08;5.28;;;0.70;;
49123;SDS011;48506;48.202;16.274;2023-11-21T11:24:50;1.95;;;0.90;;
49123;SDS011;48506;48.202;16.274;2023-11-21T11:30:30;4.90;;;1.17;;
49123;SDS011;48506;48.202;16.274;2023-11-21T11:38:36;3.58;;;1.33;;
49123;SDS011;48506;48.202;16.274;2023-11-21T11:41:03;3.30;;;1.05;;
49123;SDS011;48506;48.202;16.274;2023-11-21T11:43:31;4.32;;;0.90;;
49123;SDS011;48506;48.202;16.274;2023-11-21T11:45:58;4.40;;;1.73;;
49123;SDS011;48506;48.202;16.274;2023-11-21T11:48:25;3.22;;;1.15;;
49123;SDS011;48506;48.202;16.274;2023-11-21T11:51:01;6.03;;;1.20;;
49123;SDS011;48506;48.202;16.274;2023-11-21T11:53:32;4.85;;;1.58;;
49123;SDS011;48506;48.202;16.274;2023-11-21T11:59:01;4.57;;;1.45;;
49123;SDS011;48506;48.202;16.274;2023-11-21T12:01:30;2.47;;;1.27;;
49123;SDS011;48506;48.202;16.274;2023-11-21T12:07:02;3.95;;;1.40;;
49123;SDS011;48506;48.202;16.274;2023-11-21T12:09:28;4.15;;;1.30;;
49123;SDS011;48506;48.202;16.274;2023-11-21T12:11:56;3.50;;;1.73;;
49123;SDS011;48506;48.202;16.274;2023-11-21T12:14:24;4.18;;;1.42;;
49123;SDS011;48506;48.202;16.274;2023-11-21T12:16:51;3.95;;;1.30;;
49123;SDS011;48506;48.202;16.274;2023-11-21T12:19:17;5.82;;;1.58;;
49123;SDS011;48506;48.202;16.274;2023-11-21T12:21:43;5.25;;;1.42;;
49123;SDS011;48506;48.202;16.274;2023-11-21T12:24:10;10.05;;;1.92;;
49123;SDS011;48506;48.202;16.274;2023-11-21T12:26:39;2.97;;;1.05;;
49123;SDS011;48506;48.202;16.274;2023-11-21T12:29:06;2.78;;;1.30;;
49123;SDS011;48506;48.202;16.274;2023-11-21T12:31:33;5.70;;;1.48;;
49123;SDS011;48506;48.202;16.274;2023-11-21T12:34:02;3.72;;;1.48;;
49123;SDS011;48506;48.202;16.274;2023-11-21T12:36:29;5.60;;;1.67;;
49123;SDS011;48506;48.202;16.274;2023-11-21T12:38:56;4.28;;;1.52;;
49123;SDS011;48506;48.202;16.274;2023-11-21T12:41:22;4.47;;;1.60;;
49123;SDS011;48506;48.202;16.274;2023-11-21T12:43:48;5.47;;;1.77;;
49123;SDS011;48506;48.202;16.274;2023-11-21T12:46:15;3.40;;;1.98;;
49123;SDS011;48506;48.202;16.274;2023-11-21T12:48:42;5.90;;;1.45;;
49123;SDS011;48506;48.202;16.274;2023-11-21T12:51:11;3.65;;;1.35;;
49123;SDS011;48506;48.202;16.274;2023-11-21T12:53:40;3.88;;;1.38;;
49123;SDS011;48506;48.202;16.274;2023-11-21T12:56:11;3.83;;;1.50;;
49123;SDS011;48506;48.202;16.274;2023-11-21T12:58:38;4.20;;;1.33;;
49123;SDS011;48506;48.202;16.274;2023-11-21T13:01:07;2.70;;;1.05;;
49123;SDS011;48506;48.202;16.274;2023-11-21T13:03:47;2.83;;;1.25;;
49123;SDS011;48506;48.202;16.274;2023-11-21T13:06:16;2.20;;;1.17;;
49123;SDS011;48506;48.202;16.274;2023-11-21T13:08:43;4.05;;;1.20;;
49123;SDS011;48506;48.202;16.274;2023-11-21T13:11:10;2.97;;;1.33;;
49123;SDS011;48506;48.202;16.274;2023-11-21T13:13:36;2.65;;;1.02;;
49123;SDS011;48506;48.202;16.274;2023-11-21T13:16:07;3.60;;;1.80;;
49123;SDS011;48506;48.202;16.274;2023-11-21T13:18:35;3.38;;;1.25;;
49123;SDS011;48506;48.202;16.274;2023-11-21T13:21:03;3.75;;;1.10;;
49123;SDS011;48506;48.202;16.274;2023-11-21T13:23:40;3.17;;;1.30;;
49123;SDS011;48506;48.202;16.274;2023-11-21T13:26:07;5.88;;;2.35;;
49123;SDS011;48506;48.202;16.274;2023-11-21T13:28:35;2.38;;;1.17;;
49123;SDS011;48506;48.202;16.274;2023-11-21T13:31:03;2.08;;;1.40;;
49123;SDS011;48506;48.202;16.274;2023-11-21T13:33:49;5.03;;;2.00;;
49123;SDS011;48506;48.202;16.274;2023-11-21T13:36:30;5.80;;;1.65;;
49123;SDS011;48506;48.202;16.274;2023-11-21T13:38:58;5.10;;;1.95;;
49123;SDS011;48506;48.202;16.274;2023-11-21T13:41:30;5.70;;;1.88;;
49123;SDS011;48506;48.202;16.274;2023-11-21T13:43:56;4.50;;;1.60;;
49123;SDS011;48506;48.202;16.274;2023-11-21T13:46:43;6.18;;;1.80;;
49123;SDS011;48506;48.202;16.274;2023-11-21T13:49:10;4.68;;;1.73;;
49123;SDS011;48506;48.202;16.274;2023-11-21T13:51:37;3.47;;;1.50;;
49123;SDS011;48506;48.202;16.274;2023-11-21T13:54:09;6.53;;;2.20;;
49123;SDS011;48506;48.202;16.274;2023-11-21T13:56:36;6.25;;;2.47;;
49123;SDS011;48506;48.202;16.274;2023-11-21T13:59:04;3.00;;;1.67;;
49123;SDS011;48506;48.202;16.274;2023-11-21T14:01:47;9.40;;;1.90;;
49123;SDS011;48506;48.202;16.274;2023-11-21T14:04:38;7.95;;;2.97;;
49123;SDS011;48506;48.202;16.274;2023-11-21T14:07:20;7.38;;;1.85;;
49123;SDS011;48506;48.202;16.274;2023-11-21T14:10:02;5.00;;;2.45;;
49123;SDS011;48506;48.202;16.274;2023-11-21T14:12:30;6.53;;;2.33;;
49123;SDS011;48506;48.202;16.274;2023-11-21T14:14:59;8.02;;;2.35;;
49123;SDS011;48506;48.202;16.274;2023-11-21T14:17:28;5.95;;;2.13;;
49123;SDS011;48506;48.202;16.274;2023-11-21T14:19:54;6.13;;;2.53;;
49123;SDS011;48506;48.202;16.274;2023-11-21T14:22:21;6.45;;;2.65;;
49123;SDS011;48506;48.202;16.274;2023-11-21T14:24:47;4.22;;;2.42;;
49123;SDS011;48506;48.202;16.274;2023-11-21T14:27:15;4.47;;;2.72;;
49123;SDS011;48506;48.202;16.274;2023-11-21T14:29:42;6.80;;;2.95;;
49123;SDS011;48506;48.202;16.274;2023-11-21T14:32:10;11.75;;;3.72;;
49123;SDS011;48506;48.202;16.274;2023-11-21T14:34:37;7.00;;;3.13;;
49123;SDS011;48506;48.202;16.274;2023-11-21T14:37:04;7.35;;;2.97;;
49123;SDS011;48506;48.202;16.274;2023-11-21T14:39:29;7.18;;;3.22;;
49123;SDS011;48506;48.202;16.274;2023-11-21T14:41:56;5.95;;;3.40;;
49123;SDS011;48506;48.202;16.274;2023-11-21T14:44:24;5.65;;;3.35;;
49123;SDS011;48506;48.202;16.274;2023-11-21T14:46:54;8.43;;;2.92;;
49123;SDS011;48506;48.202;16.274;2023-11-21T14:49:22;7.60;;;4.05;;
49123;SDS011;48506;48.202;16.274;2023-11-21T14:51:51;9.70;;;3.53;;